Time;durP1;ratioP1;P1;durP2;ratioP2;P2;SDS_P1;SDS_P2;PMS_P1;PMS_P2;Temp;Humidity;BMP_temperature;BMP_pressure;BME280_temperature;BME280_humidity;BME280_pressure;Samples;Min_cycle;Max_cycle;Signal;HPM_P1;HPM_P2
2022/12/12 00:01:16;;;;;;;162.17;126.97;;;0.80;99.90;;;;;;5049555;28;20264;-52
2022/12/12 00:03:46;;;;;;;107.80;72.47;;;0.80;99.90;;;;;;5044276;28;20210;-51
2022/12/12 00:06:14;;;;;;;140.63;119.20;;;0.80;99.90;;;;;;5047987;28;20580;-51
2022/12/12 00:08:42;;;;;;;154.10;137.80;;;0.80;99.90;;;;;;5052389;28;20223;-51
2022/12/12 00:11:11;;;;;;;92.47;76.33;;;0.70;99.90;;;;;;5052194;28;20225;-51
2022/12/12 00:13:39;;;;;;;145.30;74.20;;;0.80;99.90;;;;;;5052012;28;20237;-51
2022/12/12 00:16:08;;;;;;;162.17;101.53;;;0.70;99.90;;;;;;5052363;28;20284;-51
2022/12/12 00:18:37;;;;;;;205.37;183.80;;;0.60;99.90;;;;;;5051816;28;20288;-50
2022/12/12 00:21:12;;;;;;;97.40;82.13;;;0.70;99.90;;;;;;5052259;28;20320;-50
2022/12/12 00:23:40;;;;;;;114.63;93.20;;;0.70;99.90;;;;;;5052208;28;20295;-51
2022/12/12 00:26:17;;;;;;;98.63;87.47;;;0.70;99.90;;;;;;5052458;28;20234;-51
2022/12/12 00:28:46;;;;;;;235.27;168.83;;;0.70;99.90;;;;;;5051760;28;20300;-50
2022/12/12 00:31:15;;;;;;;138.80;124.60;;;0.70;99.90;;;;;;5052212;28;20273;-50
2022/12/12 00:33:43;;;;;;;354.73;188.77;;;0.70;99.90;;;;;;5051679;28;20206;-51
2022/12/12 00:36:13;;;;;;;141.50;121.97;;;0.70;99.90;;;;;;5050377;28;20195;-51
2022/12/12 00:38:41;;;;;;;157.47;92.60;;;0.70;99.90;;;;;;5052121;28;20207;-51
2022/12/12 00:41:09;;;;;;;103.03;91.50;;;0.70;99.90;;;;;;5051518;28;20667;-51
2022/12/12 00:43:37;;;;;;;136.27;121.43;;;0.70;99.90;;;;;;5050321;28;20638;-51
2022/12/12 00:46:06;;;;;;;168.07;141.00;;;0.70;99.90;;;;;;5045036;28;20203;-51
2022/12/12 00:48:35;;;;;;;110.40;81.43;;;0.80;99.90;;;;;;5050530;28;20209;-50
2022/12/12 00:51:07;;;;;;;129.53;116.93;;;0.80;99.90;;;;;;5051403;28;20267;-51
2022/12/12 00:53:38;;;;;;;92.23;81.77;;;0.90;99.90;;;;;;5050568;28;20204;-51
2022/12/12 00:56:06;;;;;;;103.50;76.90;;;0.90;99.90;;;;;;5051865;28;20212;-52
2022/12/12 00:58:34;;;;;;;95.30;71.97;;;0.90;99.90;;;;;;5049751;28;20300;-51
2022/12/12 01:01:09;;;;;;;153.33;132.17;;;0.80;99.90;;;;;;5033919;28;20308;-53
2022/12/12 01:03:39;;;;;;;207.73;186.23;;;0.70;99.90;;;;;;5046502;28;20201;-51
2022/12/12 01:06:08;;;;;;;184.77;158.17;;;0.70;99.90;;;;;;5051658;28;20293;-51
2022/12/12 01:08:37;;;;;;;101.03;78.20;;;0.70;99.90;;;;;;5050296;28;20664;-50
2022/12/12 01:11:06;;;;;;;98.90;78.50;;;0.80;99.90;;;;;;5051555;28;20679;-52
2022/12/12 01:13:34;;;;;;;126.80;96.50;;;0.80;99.90;;;;;;5051051;28;20212;-50
2022/12/12 01:16:03;;;;;;;128.13;101.23;;;0.80;99.90;;;;;;5037854;28;20292;-50
2022/12/12 01:18:32;;;;;;;125.73;112.03;;;0.80;99.90;;;;;;5051306;28;20210;-50
2022/12/12 01:21:00;;;;;;;115.27;102.83;;;0.70;99.90;;;;;;5050795;28;20316;-51
2022/12/12 01:23:28;;;;;;;180.50;135.50;;;0.70;99.90;;;;;;5050771;28;20301;-50
2022/12/12 01:26:01;;;;;;;211.17;177.50;;;0.70;99.90;;;;;;5050541;28;20292;-50
2022/12/12 01:28:29;;;;;;;78.23;62.30;;;0.70;99.90;;;;;;5051350;28;20208;-49
2022/12/12 01:30:57;;;;;;;85.87;72.40;;;0.60;99.90;;;;;;5050993;28;20253;-50
2022/12/12 01:33:26;;;;;;;124.23;110.83;;;0.70;99.90;;;;;;5050345;28;20330;-51
2022/12/12 01:35:54;;;;;;;164.03;107.07;;;0.70;99.90;;;;;;5049982;28;20293;-51
2022/12/12 01:38:24;;;;;;;142.57;99.10;;;0.60;99.90;;;;;;5051074;28;20292;-52
2022/12/12 01:40:53;;;;;;;130.20;115.57;;;0.60;99.90;;;;;;5050524;28;20261;-51
2022/12/12 01:43:23;;;;;;;126.30;112.77;;;0.60;99.90;;;;;;5050134;28;20205;-51
2022/12/12 01:46:31;;;;;;;144.57;129.83;;;0.60;99.90;;;;;;5043984;28;20316;-51
2022/12/12 01:49:04;;;;;;;192.33;139.10;;;0.60;99.90;;;;;;5047034;28;20858;-50
2022/12/12 01:51:32;;;;;;;158.13;143.20;;;0.60;99.90;;;;;;5043985;28;20437;-50
2022/12/12 01:54:07;;;;;;;176.60;158.63;;;0.60;99.90;;;;;;5049862;28;20232;-51
2022/12/12 01:56:36;;;;;;;143.87;127.60;;;0.70;99.90;;;;;;5036593;28;20293;-51
2022/12/12 01:59:08;;;;;;;106.17;93.63;;;0.60;99.90;;;;;;5049701;28;20236;-51
2022/12/12 02:01:37;;;;;;;102.57;90.57;;;0.60;99.90;;;;;;5039131;28;20284;-50
2022/12/12 02:04:07;;;;;;;94.17;78.13;;;0.70;99.90;;;;;;5049980;28;20264;-50
2022/12/12 02:06:35;;;;;;;115.43;80.93;;;0.70;99.90;;;;;;5049691;28;20212;-51
2022/12/12 02:09:06;;;;;;;135.17;120.97;;;0.70;99.90;;;;;;5049448;28;20213;-51
2022/12/12 02:11:41;;;;;;;110.07;98.57;;;0.80;99.90;;;;;;5050508;28;20292;-51
2022/12/12 02:14:11;;;;;;;192.33;150.83;;;0.80;99.90;;;;;;5049895;28;20231;-51
2022/12/12 02:16:56;;;;;;;129.30;107.33;;;0.80;99.90;;;;;;5049993;28;20297;-50
2022/12/12 02:19:54;;;;;;;118.87;107.10;;;0.80;99.90;;;;;;5050157;28;20746;-52
2022/12/12 02:22:38;;;;;;;139.33;124.60;;;0.80;99.90;;;;;;5036963;28;20299;-50
2022/12/12 02:25:30;;;;;;;198.07;156.90;;;0.70;99.90;;;;;;5049647;28;20909;-51
2022/12/12 02:28:17;;;;;;;115.80;91.13;;;0.70;99.90;;;;;;5040596;28;20205;-51
2022/12/12 02:30:58;;;;;;;90.30;79.60;;;0.70;99.90;;;;;;5047326;28;20255;-49
2022/12/12 02:33:37;;;;;;;147.80;133.47;;;0.70;99.90;;;;;;5049320;28;20714;-52
2022/12/12 02:36:15;;;;;;;163.67;146.27;;;0.70;99.90;;;;;;5048670;28;20233;-51
2022/12/12 02:38:49;;;;;;;100.43;78.83;;;0.70;99.90;;;;;;5042795;28;20287;-51
2022/12/12 02:41:27;;;;;;;180.80;162.87;;;0.80;99.90;;;;;;5038633;28;20403;-51
2022/12/12 02:44:06;;;;;;;108.07;95.77;;;0.80;99.90;;;;;;5047286;28;20745;-50
2022/12/12 02:46:41;;;;;;;122.33;100.57;;;0.70;99.90;;;;;;5044240;28;20288;-51
2022/12/12 02:49:13;;;;;;;131.27;117.33;;;0.70;99.90;;;;;;5044237;28;20576;-52
2022/12/12 02:51:43;;;;;;;85.70;61.27;;;0.70;99.90;;;;;;5049301;28;20236;-52
2022/12/12 02:54:14;;;;;;;130.37;116.23;;;0.70;99.90;;;;;;5048606;28;20299;-51
2022/12/12 02:56:50;;;;;;;118.43;91.77;;;0.70;99.90;;;;;;5048416;28;20332;-52
2022/12/12 02:59:24;;;;;;;151.10;135.30;;;0.80;99.90;;;;;;5046830;28;21074;-51
2022/12/12 03:02:13;;;;;;;332.23;178.20;;;0.80;99.90;;;;;;5039922;28;20243;-52
2022/12/12 03:07:48;;;;;;;288.43;259.73;;;0.70;99.90;;;;;;5049278;28;20220;-52
2022/12/12 03:10:28;;;;;;;191.97;168.53;;;0.70;99.90;;;;;;5049276;28;20286;-50
2022/12/12 03:13:05;;;;;;;122.97;109.60;;;0.70;99.90;;;;;;5045628;28;20316;-51
2022/12/12 03:15:43;;;;;;;144.73;129.30;;;0.70;99.90;;;;;;5043931;28;20292;-51
2022/12/12 03:18:22;;;;;;;153.27;137.20;;;0.70;99.90;;;;;;5048286;28;20709;-50
2022/12/12 03:20:55;;;;;;;115.53;95.47;;;0.70;99.90;;;;;;5049239;28;20316;-51
2022/12/12 03:23:28;;;;;;;159.87;141.43;;;0.70;99.90;;;;;;5041542;28;20311;-51
2022/12/12 03:26:00;;;;;;;127.13;113.73;;;0.70;99.90;;;;;;5048715;28;20296;-52
2022/12/12 03:28:33;;;;;;;139.43;124.70;;;0.70;99.90;;;;;;5048217;28;20293;-52
2022/12/12 03:31:07;;;;;;;209.57;139.53;;;0.70;99.90;;;;;;5048146;28;20314;-51
2022/12/12 03:33:42;;;;;;;126.30;112.57;;;0.70;99.90;;;;;;5048579;28;20230;-51
2022/12/12 03:36:14;;;;;;;143.67;126.17;;;0.70;99.90;;;;;;5048421;28;20304;-49
2022/12/12 03:38:47;;;;;;;96.60;86.07;;;0.70;99.90;;;;;;5048872;28;20213;-52
2022/12/12 03:41:20;;;;;;;175.37;138.67;;;0.70;99.90;;;;;;5049378;28;20310;-50
2022/12/12 03:43:55;;;;;;;97.00;71.43;;;0.70;99.90;;;;;;5048116;28;20677;-52
2022/12/12 03:46:27;;;;;;;121.17;108.40;;;0.70;99.90;;;;;;5049528;28;20295;-50
2022/12/12 03:49:01;;;;;;;102.70;82.43;;;0.70;99.90;;;;;;5048952;28;20830;-51
2022/12/12 03:51:31;;;;;;;179.20;108.17;;;0.60;99.90;;;;;;5049066;28;20670;-51
2022/12/12 03:54:04;;;;;;;159.67;143.83;;;0.50;99.90;;;;;;5047945;28;20676;-52
2022/12/12 03:56:38;;;;;;;157.30;139.50;;;0.50;99.90;;;;;;5049093;28;20207;-50
2022/12/12 03:59:10;;;;;;;159.90;132.67;;;0.50;99.90;;;;;;5048948;28;20286;-51
2022/12/12 04:01:50;;;;;;;139.47;126.27;;;0.40;99.90;;;;;;5043214;28;20248;-51
2022/12/12 04:04:27;;;;;;;241.33;212.03;;;0.40;99.90;;;;;;5048829;28;20205;-50
2022/12/12 04:07:00;;;;;;;111.40;88.67;;;0.40;99.90;;;;;;5049091;28;20240;-51
2022/12/12 04:15:26;;;;;;;184.47;164.13;;;0.20;99.90;;;;;;5037697;28;20268;-50
2022/12/12 04:18:05;;;;;;;204.50;157.80;;;0.10;99.90;;;;;;5049049;28;20292;-50
2022/12/12 04:23:37;;;;;;;287.27;261.03;;;0.10;99.90;;;;;;5038931;28;20244;-50
2022/12/12 04:29:04;;;;;;;205.57;188.80;;;0.10;99.90;;;;;;5048335;28;20293;-51
2022/12/12 04:31:36;;;;;;;147.83;135.07;;;0.20;99.90;;;;;;5035381;28;20664;-51
2022/12/12 04:34:26;;;;;;;277.93;254.80;;;0.20;99.90;;;;;;5048168;28;20326;-50
2022/12/12 04:36:55;;;;;;;280.27;253.90;;;0.20;99.90;;;;;;5049605;28;20302;-52
2022/12/12 04:39:24;;;;;;;229.23;204.77;;;0.20;99.90;;;;;;5052184;28;20326;-50
2022/12/12 04:41:53;;;;;;;186.43;167.37;;;0.20;99.90;;;;;;5052082;28;20299;-52
2022/12/12 04:44:24;;;;;;;208.83;189.37;;;0.20;99.90;;;;;;5052173;28;20301;-50
2022/12/12 04:46:56;;;;;;;253.63;226.17;;;0.20;99.90;;;;;;5051517;28;20740;-51
2022/12/12 04:49:29;;;;;;;192.43;174.13;;;0.20;99.90;;;;;;5051258;28;20855;-52
2022/12/12 04:52:02;;;;;;;160.03;142.53;;;0.20;99.90;;;;;;5050336;28;20290;-51
2022/12/12 04:54:37;;;;;;;172.20;155.77;;;0.20;99.90;;;;;;5051301;28;20226;-52
2022/12/12 04:57:08;;;;;;;212.03;188.93;;;0.20;99.90;;;;;;5051016;28;20572;-52
2022/12/12 04:59:36;;;;;;;161.43;138.80;;;0.20;99.90;;;;;;5048840;28;20450;-51
2022/12/12 05:02:13;;;;;;;255.33;229.50;;;0.10;99.90;;;;;;5051036;28;20239;-51
2022/12/12 05:04:50;;;;;;;200.80;182.80;;;0.10;99.90;;;;;;5050993;28;20202;-52
2022/12/12 05:07:27;;;;;;;281.87;258.30;;;0.00;99.90;;;;;;5055505;28;20252;-51
2022/12/12 05:09:57;;;;;;;254.30;231.53;;;-0.10;99.90;;;;;;5048488;28;20310;-51
2022/12/12 05:12:26;;;;;;;286.10;261.03;;;-0.20;99.90;;;;;;5050635;28;20293;-50
2022/12/12 05:14:54;;;;;;;250.20;223.23;;;-0.30;99.90;;;;;;5049536;28;20937;-51
2022/12/12 05:17:30;;;;;;;177.77;159.53;;;-0.20;99.90;;;;;;5049777;28;20728;-51
2022/12/12 05:19:59;;;;;;;246.70;224.33;;;-0.10;99.90;;;;;;5047472;28;20883;-51
2022/12/12 05:22:28;;;;;;;152.07;140.03;;;-0.10;99.90;;;;;;5048985;28;20331;-50
2022/12/12 05:24:56;;;;;;;140.00;127.57;;;-0.10;99.90;;;;;;5048091;28;20204;-51
2022/12/12 05:27:24;;;;;;;284.33;258.30;;;-0.10;99.90;;;;;;5050748;28;20240;-50
2022/12/12 05:29:52;;;;;;;287.83;263.57;;;-0.20;99.90;;;;;;5050295;28;20324;-51
2022/12/12 05:32:20;;;;;;;1124.07;585.43;;;-0.20;99.90;;;;;;5050276;28;20322;-52
2022/12/12 05:34:48;;;;;;;603.00;548.63;;;-0.20;99.90;;;;;;5050011;28;20345;-50
2022/12/12 05:37:17;;;;;;;1168.77;675.53;;;-0.30;99.90;;;;;;5039590;28;20211;-51
2022/12/12 05:39:47;;;;;;;312.03;288.00;;;-0.40;99.90;;;;;;5039306;28;20232;-51
2022/12/12 05:42:15;;;;;;;310.33;288.20;;;-0.40;99.90;;;;;;5043842;28;20209;-51
2022/12/12 05:44:43;;;;;;;731.23;618.50;;;-0.30;99.90;;;;;;5048803;28;20318;-51
2022/12/12 05:47:11;;;;;;;423.97;379.67;;;-0.30;99.90;;;;;;5043102;28;20681;-52
2022/12/12 05:49:39;;;;;;;714.37;659.03;;;-0.40;99.90;;;;;;5044221;28;20819;-52
2022/12/12 05:52:07;;;;;;;1562.33;806.17;;;-0.40;99.90;;;;;;5047238;28;20301;-51
2022/12/12 05:54:35;;;;;;;1287.57;831.60;;;-0.50;99.90;;;;;;5047906;28;20316;-51
2022/12/12 05:57:04;;;;;;;834.67;614.83;;;-0.50;99.90;;;;;;5045470;28;20659;-52
2022/12/12 05:59:33;;;;;;;798.37;722.43;;;-0.60;99.90;;;;;;5048508;28;20276;-51
2022/12/12 06:02:01;;;;;;;863.83;763.47;;;-0.80;99.90;;;;;;5047721;28;20297;-51
2022/12/12 06:04:29;;;;;;;779.63;708.97;;;-0.90;99.90;;;;;;5048677;28;20259;-51
2022/12/12 06:06:57;;;;;;;408.03;374.50;;;-1.10;99.90;;;;;;5048673;28;20210;-51
2022/12/12 06:09:25;;;;;;;299.73;277.90;;;-1.10;99.90;;;;;;5034492;28;20221;-50
2022/12/12 06:11:53;;;;;;;621.70;573.30;;;-1.10;99.90;;;;;;5048737;28;20294;-51
2022/12/12 06:14:23;;;;;;;666.30;563.50;;;-1.00;99.90;;;;;;5046385;28;20326;-52
2022/12/12 06:16:51;;;;;;;390.47;359.97;;;-1.00;99.90;;;;;;5049461;28;20286;-51
2022/12/12 06:19:20;;;;;;;674.13;609.57;;;-0.90;99.90;;;;;;5049017;28;20318;-50
2022/12/12 06:21:48;;;;;;;698.63;622.20;;;-0.90;99.90;;;;;;5049690;28;20313;-51
2022/12/12 06:24:16;;;;;;;449.63;412.40;;;-0.90;99.90;;;;;;5048821;28;20301;-52
2022/12/12 06:26:44;;;;;;;734.17;671.17;;;-1.00;99.90;;;;;;5049953;28;20289;-50
2022/12/12 06:29:13;;;;;;;446.20;405.77;;;-1.00;99.90;;;;;;5048880;28;20228;-51
2022/12/12 06:31:43;;;;;;;547.73;505.37;;;-1.00;99.90;;;;;;5049714;28;20637;-53
2022/12/12 06:34:11;;;;;;;1077.03;861.93;;;-1.00;99.90;;;;;;5047986;28;20226;-51
2022/12/12 06:36:39;;;;;;;852.67;747.50;;;-1.10;99.90;;;;;;5043773;28;20408;-51
2022/12/12 06:39:08;;;;;;;1280.07;855.37;;;-1.10;99.90;;;;;;5039593;28;20218;-50
2022/12/12 06:41:36;;;;;;;915.93;780.37;;;-1.10;99.90;;;;;;5049513;28;20755;-52
2022/12/12 06:44:05;;;;;;;1096.20;806.33;;;-1.20;99.90;;;;;;5048110;28;20202;-49
2022/12/12 06:46:33;;;;;;;718.43;650.70;;;-1.20;99.90;;;;;;5044702;28;20298;-52
2022/12/12 06:49:08;;;;;;;821.67;732.37;;;-1.30;99.90;;;;;;5045289;28;20211;-52
2022/12/12 06:51:42;;;;;;;1388.23;926.10;;;-1.30;99.90;;;;;;5048486;28;20208;-52
2022/12/12 06:54:11;;;;;;;1213.73;871.03;;;-1.40;99.90;;;;;;5035586;28;20228;-49
2022/12/12 06:56:39;;;;;;;891.90;808.57;;;-1.50;99.90;;;;;;5046311;28;20240;-50
2022/12/12 06:59:15;;;;;;;1999.90;895.57;;;-1.60;99.90;;;;;;5034212;28;20201;-51
2022/12/12 07:01:43;;;;;;;896.77;811.43;;;-1.70;99.90;;;;;;5047470;28;20209;-51
2022/12/12 07:04:13;;;;;;;1484.20;936.00;;;-1.70;99.90;;;;;;5032686;28;20210;-51
2022/12/12 07:06:42;;;;;;;730.10;662.87;;;-1.80;99.90;;;;;;5047377;28;20252;-51
2022/12/12 07:09:10;;;;;;;794.80;726.17;;;-1.90;99.90;;;;;;5046596;28;20210;-50
2022/12/12 07:11:40;;;;;;;906.93;824.47;;;-2.00;99.90;;;;;;5048754;28;20217;-50
2022/12/12 07:14:10;;;;;;;805.50;729.40;;;-2.10;99.90;;;;;;5047478;28;20350;-50
2022/12/12 07:16:38;;;;;;;1602.43;890.47;;;-2.10;99.90;;;;;;5035311;28;20328;-51
2022/12/12 07:19:06;;;;;;;1243.43;975.27;;;-2.20;99.90;;;;;;5046472;28;20202;-50
2022/12/12 07:21:36;;;;;;;871.80;790.07;;;-2.30;99.90;;;;;;5048088;28;20296;-51
2022/12/12 07:24:04;;;;;;;849.97;773.40;;;-2.30;99.90;;;;;;5047375;28;20216;-52
2022/12/12 07:26:32;;;;;;;1061.93;950.03;;;-2.40;99.90;;;;;;5043996;28;20245;-49
2022/12/12 07:29:02;;;;;;;962.00;863.00;;;-2.40;99.90;;;;;;5039342;28;20292;-51
2022/12/12 07:31:31;;;;;;;980.17;894.97;;;-2.50;99.90;;;;;;5047295;28;20198;-51
2022/12/12 07:33:59;;;;;;;1276.63;930.27;;;-2.60;99.90;;;;;;5046463;28;20718;-51
2022/12/12 07:36:27;;;;;;;1031.80;927.90;;;-2.60;99.90;;;;;;5043898;28;20212;-51
2022/12/12 07:38:56;;;;;;;922.03;839.47;;;-2.60;99.90;;;;;;5041514;28;20210;-52
2022/12/12 07:41:25;;;;;;;1107.20;980.10;;;-2.70;99.90;;;;;;5047600;28;20232;-52
2022/12/12 07:43:53;;;;;;;1012.33;903.40;;;-2.70;99.90;;;;;;5048323;28;20650;-51
2022/12/12 07:46:23;;;;;;;866.97;795.77;;;-2.80;99.90;;;;;;5035714;28;20628;-52
2022/12/12 07:48:52;;;;;;;1072.07;960.73;;;-2.70;99.90;;;;;;5047667;28;20704;-53
2022/12/12 07:51:21;;;;;;;959.67;837.60;;;-2.70;99.90;;;;;;5047131;28;20321;-54
2022/12/12 07:53:49;;;;;;;1139.60;958.40;;;-2.80;99.90;;;;;;5038607;28;20585;-52
2022/12/12 07:56:19;;;;;;;1266.50;999.90;;;-2.80;99.90;;;;;;5047279;28;20257;-52
2022/12/12 07:58:47;;;;;;;1042.17;940.43;;;-2.90;99.90;;;;;;5038118;28;20214;-51
2022/12/12 08:01:18;;;;;;;836.77;769.93;;;-2.80;99.90;;;;;;5047293;28;20279;-51
2022/12/12 08:03:47;;;;;;;1030.17;866.70;;;-2.80;99.90;;;;;;5036215;28;20928;-52
2022/12/12 08:06:16;;;;;;;922.33;825.73;;;-2.90;99.90;;;;;;5043097;28;20328;-52
2022/12/12 08:08:44;;;;;;;973.27;878.80;;;-2.90;99.90;;;;;;5047390;28;20241;-51
2022/12/12 08:11:14;;;;;;;1192.87;887.30;;;-2.90;99.90;;;;;;5047311;28;20324;-52
2022/12/12 08:13:44;;;;;;;723.90;650.53;;;-2.90;99.90;;;;;;5049114;28;20213;-52
2022/12/12 08:16:14;;;;;;;702.13;627.47;;;-2.80;99.90;;;;;;5051655;28;20235;-51
2022/12/12 08:18:42;;;;;;;779.30;564.87;;;-2.60;99.90;;;;;;5048613;28;20210;-51
2022/12/12 08:21:12;;;;;;;875.80;646.63;;;-2.50;99.90;;;;;;5050237;28;20229;-51
2022/12/12 08:23:41;;;;;;;608.83;535.20;;;-2.30;99.90;;;;;;5045659;28;20197;-50
2022/12/12 08:26:10;;;;;;;800.43;671.90;;;-2.20;99.90;;;;;;5052114;28;20260;-52
2022/12/12 08:28:40;;;;;;;722.37;612.23;;;-2.20;99.90;;;;;;5044216;28;20281;-52
2022/12/12 08:31:09;;;;;;;493.67;444.90;;;-2.20;99.90;;;;;;5049917;28;20229;-51
2022/12/12 08:33:37;;;;;;;808.50;700.93;;;-2.10;99.90;;;;;;5042703;28;20217;-51
2022/12/12 08:36:14;;;;;;;409.50;378.50;;;-2.20;99.90;;;;;;5050674;28;20320;-51
2022/12/12 08:38:42;;;;;;;698.93;639.70;;;-2.20;99.90;;;;;;5049151;28;20686;-49
2022/12/12 08:41:11;;;;;;;1012.40;915.13;;;-2.10;99.90;;;;;;5052070;28;20257;-52
2022/12/12 08:43:41;;;;;;;903.07;820.87;;;-2.00;99.90;;;;;;5044125;28;20296;-50
2022/12/12 08:46:15;;;;;;;811.30;740.73;;;-2.00;99.90;;;;;;5051863;28;20201;-52
2022/12/12 08:48:45;;;;;;;732.70;676.47;;;-1.90;99.90;;;;;;5050286;28;20216;-51
2022/12/12 08:51:13;;;;;;;902.57;818.40;;;-1.90;99.90;;;;;;5050771;28;20241;-52
2022/12/12 08:53:44;;;;;;;766.70;265.20;;;-1.80;99.90;;;;;;5046793;28;20531;-53
2022/12/12 08:56:12;;;;;;;64.07;53.40;;;-1.60;99.90;;;;;;5051333;28;20217;-53
2022/12/12 08:58:41;;;;;;;486.20;446.83;;;-1.70;99.90;;;;;;5047251;28;20292;-51
2022/12/12 09:01:16;;;;;;;770.50;697.40;;;-1.70;99.90;;;;;;5038230;28;20309;-51
2022/12/12 09:03:44;;;;;;;826.20;751.20;;;-1.70;99.90;;;;;;5039949;28;20272;-54
2022/12/12 09:06:13;;;;;;;752.03;657.93;;;-1.70;99.90;;;;;;5051454;28;20205;-53
2022/12/12 09:08:41;;;;;;;682.70;614.77;;;-1.80;99.90;;;;;;5048880;28;20586;-53
2022/12/12 09:11:10;;;;;;;647.67;587.70;;;-1.80;99.90;;;;;;5050870;28;20217;-53
2022/12/12 09:13:39;;;;;;;831.40;745.77;;;-1.80;99.90;;;;;;5047524;28;20295;-52
2022/12/12 09:16:08;;;;;;;802.07;721.53;;;-1.80;99.90;;;;;;5050564;28;20312;-52
2022/12/12 09:18:39;;;;;;;709.87;651.20;;;-1.80;99.90;;;;;;5049900;28;20693;-53
2022/12/12 09:21:16;;;;;;;755.77;686.67;;;-1.70;99.90;;;;;;5047954;28;20229;-51
2022/12/12 09:23:44;;;;;;;660.27;604.83;;;-1.70;99.90;;;;;;5048831;28;20304;-51
2022/12/12 09:26:12;;;;;;;857.73;765.30;;;-1.70;99.90;;;;;;5050970;28;20308;-51
2022/12/12 09:28:40;;;;;;;727.33;659.67;;;-1.70;99.90;;;;;;5049728;28;20316;-51
2022/12/12 09:31:10;;;;;;;431.57;394.77;;;-1.70;99.90;;;;;;5050755;28;20324;-52
2022/12/12 09:33:41;;;;;;;665.90;605.37;;;-1.70;99.90;;;;;;5047632;28;20697;-51
2022/12/12 09:36:11;;;;;;;727.00;630.50;;;-1.60;99.90;;;;;;5044741;28;20225;-51
2022/12/12 09:38:40;;;;;;;764.93;686.10;;;-1.60;99.90;;;;;;5044064;28;20202;-51
2022/12/12 09:41:13;;;;;;;879.33;671.33;;;-1.50;99.90;;;;;;5049331;28;20312;-50
2022/12/12 09:43:47;;;;;;;456.30;416.57;;;-1.40;99.90;;;;;;5045713;28;20230;-52
2022/12/12 09:46:32;;;;;;;497.87;456.10;;;-1.60;99.90;;;;;;5050032;28;20283;-51
2022/12/12 09:49:12;;;;;;;588.50;538.43;;;-1.70;99.90;;;;;;5043676;28;20220;-51
2022/12/12 09:51:42;;;;;;;798.20;720.07;;;-1.70;99.90;;;;;;5043949;28;20587;-51
2022/12/12 09:54:14;;;;;;;788.90;709.23;;;-1.60;99.90;;;;;;5049167;28;20236;-52
2022/12/12 09:56:50;;;;;;;569.07;515.40;;;-1.50;99.90;;;;;;5050178;28;20648;-52
2022/12/12 09:59:26;;;;;;;388.70;353.20;;;-1.50;99.90;;;;;;5046571;28;20292;-54
2022/12/12 10:02:04;;;;;;;449.80;402.73;;;-1.60;99.90;;;;;;5045092;28;20280;-54
2022/12/12 10:04:39;;;;;;;302.63;274.23;;;-1.50;99.90;;;;;;5046488;28;20213;-52
2022/12/12 10:07:20;;;;;;;486.30;389.43;;;-1.50;99.90;;;;;;5049810;28;20197;-51
2022/12/12 10:10:01;;;;;;;415.33;374.57;;;-1.30;99.90;;;;;;5039701;28;20249;-51
2022/12/12 10:12:29;;;;;;;335.50;306.27;;;-1.30;99.90;;;;;;5049790;28;20201;-51
2022/12/12 10:15:00;;;;;;;430.77;383.80;;;-1.20;99.90;;;;;;5048913;28;20206;-51
2022/12/12 10:17:32;;;;;;;288.77;263.03;;;-1.00;99.90;;;;;;5047039;28;20213;-51
2022/12/12 10:20:04;;;;;;;454.30;405.07;;;-0.90;99.90;;;;;;5036318;28;20272;-50
2022/12/12 10:22:37;;;;;;;315.40;284.60;;;-0.80;99.90;;;;;;5043556;28;20294;-52
2022/12/12 10:25:20;;;;;;;323.73;292.40;;;-0.80;99.90;;;;;;5036010;28;20724;-51
2022/12/12 10:27:52;;;;;;;486.93;437.73;;;-0.80;99.90;;;;;;5047828;28;20578;-51
2022/12/12 10:30:21;;;;;;;500.30;457.40;;;-0.80;99.90;;;;;;5042151;28;20272;-51
2022/12/12 10:33:14;;;;;;;255.63;232.10;;;-0.80;99.90;;;;;;5048738;28;20209;-52
2022/12/12 10:35:49;;;;;;;293.43;268.63;;;-0.80;99.90;;;;;;5047044;28;20207;-49
2022/12/12 10:38:32;;;;;;;414.57;370.63;;;-0.80;99.90;;;;;;5042554;28;20285;-50
2022/12/12 10:41:09;;;;;;;296.17;269.50;;;-0.70;99.90;;;;;;5036334;28;20262;-51
2022/12/12 10:43:44;;;;;;;264.00;241.70;;;-0.70;99.90;;;;;;5048443;28;20199;-52
2022/12/12 10:46:22;;;;;;;300.60;270.87;;;-0.60;99.90;;;;;;5041336;28;20294;-51
2022/12/12 10:48:51;;;;;;;224.60;203.87;;;-0.70;99.90;;;;;;5049092;28;20212;-51
2022/12/12 10:51:24;;;;;;;389.30;351.30;;;-0.60;99.90;;;;;;5048072;28;20286;-51
2022/12/12 10:53:52;;;;;;;239.07;165.97;;;-0.50;99.90;;;;;;5048284;28;20250;-51
2022/12/12 10:56:22;;;;;;;286.87;252.57;;;-0.50;99.90;;;;;;5048388;28;20285;-52
2022/12/12 10:58:56;;;;;;;361.00;280.03;;;-0.40;99.90;;;;;;5047906;28;20292;-52
2022/12/12 11:01:29;;;;;;;394.20;313.97;;;-0.30;99.90;;;;;;5048053;28;20712;-51
2022/12/12 11:04:25;;;;;;;443.97;343.47;;;-0.20;99.90;;;;;;5047950;28;20588;-52
2022/12/12 11:06:55;;;;;;;353.20;269.43;;;-0.30;99.90;;;;;;5047643;28;20287;-52
2022/12/12 11:09:26;;;;;;;139.77;125.83;;;-0.30;99.90;;;;;;5044001;28;20711;-50
2022/12/12 11:12:01;;;;;;;183.93;152.87;;;-0.30;99.90;;;;;;5047698;28;20211;-52
2022/12/12 11:14:35;;;;;;;173.03;155.10;;;-0.20;99.90;;;;;;5047872;28;20236;-51
2022/12/12 11:17:19;;;;;;;99.43;89.20;;;-0.20;99.90;;;;;;5034676;28;20319;-52
2022/12/12 11:19:47;;;;;;;246.13;222.07;;;0.00;99.90;;;;;;5040869;28;20732;-52
2022/12/12 11:22:17;;;;;;;241.57;218.17;;;0.10;99.90;;;;;;5047887;28;20238;-51
2022/12/12 11:24:47;;;;;;;172.63;106.70;;;0.10;99.90;;;;;;5045882;28;20241;-51
2022/12/12 11:27:21;;;;;;;138.77;120.30;;;0.10;99.90;;;;;;5034501;28;20289;-52
2022/12/12 11:29:51;;;;;;;577.47;263.33;;;0.10;99.90;;;;;;5040583;28;20234;-52
2022/12/12 11:32:22;;;;;;;266.63;228.90;;;0.20;99.90;;;;;;5034031;28;20299;-51
2022/12/12 11:34:54;;;;;;;219.37;199.07;;;0.30;99.90;;;;;;5040276;28;20238;-51
2022/12/12 11:37:27;;;;;;;251.07;150.77;;;0.40;99.90;;;;;;5040767;28;20704;-51
2022/12/12 11:39:56;;;;;;;253.50;161.47;;;0.30;99.90;;;;;;5039703;28;20257;-50
2022/12/12 11:42:28;;;;;;;279.07;216.97;;;0.30;99.90;;;;;;5032869;28;20756;-50
2022/12/12 11:45:03;;;;;;;175.03;132.47;;;0.30;99.90;;;;;;5046915;28;20262;-52
2022/12/12 11:47:39;;;;;;;226.87;205.30;;;0.10;99.90;;;;;;5045456;28;20223;-52
2022/12/12 11:50:22;;;;;;;147.20;133.83;;;0.20;99.90;;;;;;5044812;28;20256;-51
2022/12/12 11:52:54;;;;;;;152.43;110.07;;;0.20;99.90;;;;;;5042562;28;20287;-51
2022/12/12 11:55:32;;;;;;;262.57;173.47;;;0.30;99.90;;;;;;5046350;28;20257;-52
2022/12/12 11:58:15;;;;;;;281.60;253.27;;;0.40;99.90;;;;;;5043793;28;20305;-52
2022/12/12 12:00:49;;;;;;;203.80;182.40;;;0.40;99.90;;;;;;5047668;28;20304;-51
2022/12/12 12:03:26;;;;;;;195.20;176.93;;;0.30;99.90;;;;;;5045517;28;20296;-50
2022/12/12 12:06:26;;;;;;;243.63;217.17;;;0.30;99.90;;;;;;5034532;28;20206;-50
2022/12/12 12:09:16;;;;;;;234.00;208.90;;;0.30;99.90;;;;;;5040053;28;20302;-51
2022/12/12 12:11:54;;;;;;;270.87;243.13;;;0.40;99.90;;;;;;5035407;28;20207;-52
2022/12/12 12:14:54;;;;;;;89.17;72.00;;;0.40;99.90;;;;;;5043229;28;20263;-52
2022/12/12 12:17:32;;;;;;;279.60;253.60;;;0.40;99.90;;;;;;5041026;28;20265;-52
2022/12/12 12:20:09;;;;;;;189.60;172.10;;;0.30;99.90;;;;;;5044400;28;20253;-52
2022/12/12 12:22:50;;;;;;;133.00;119.87;;;0.60;99.90;;;;;;5044281;28;20204;-51
2022/12/12 12:25:31;;;;;;;179.13;159.53;;;0.60;99.90;;;;;;5037449;28;20255;-51
2022/12/12 12:28:16;;;;;;;232.70;168.47;;;0.80;99.90;;;;;;5045655;28;20211;-52
2022/12/12 12:30:58;;;;;;;345.47;293.27;;;0.90;99.90;;;;;;5046246;28;20686;-52
2022/12/12 12:33:42;;;;;;;202.47;185.47;;;0.80;99.90;;;;;;5044512;28;20227;-51
2022/12/12 12:36:18;;;;;;;167.07;148.77;;;0.80;99.90;;;;;;5037086;28;20202;-52
2022/12/12 12:39:09;;;;;;;247.30;167.00;;;0.70;99.90;;;;;;5044414;28;20216;-51
2022/12/12 12:41:52;;;;;;;201.43;180.10;;;0.60;99.90;;;;;;5046064;28;20205;-53
2022/12/12 12:44:31;;;;;;;150.53;130.63;;;0.60;99.90;;;;;;5047441;28;20208;-52
2022/12/12 12:47:08;;;;;;;251.20;215.57;;;0.70;99.90;;;;;;5047568;28;20295;-53
2022/12/12 12:49:43;;;;;;;298.73;180.43;;;0.70;99.90;;;;;;5039324;28;20327;-52
2022/12/12 12:52:16;;;;;;;134.43;120.90;;;0.60;99.90;;;;;;5047970;28;20293;-52
2022/12/12 12:54:47;;;;;;;189.67;170.63;;;0.60;99.90;;;;;;5044725;28;20212;-52